Time;durP1;ratioP1;P1;durP2;ratioP2;P2;SDS_P1;SDS_P2;PMS_P1;PMS_P2;Temp;Humidity;BMP_temperature;BMP_pressure;BME280_temperature;BME280_humidity;BME280_pressure;Samples;Min_cycle;Max_cycle;Signal;HPM_P1;HPM_P2
2024/02/12 00:02:20;;;;;;;11.40;2.42;;;6.10;99.90;;;;;;5098302;28;20552;-61
2024/02/12 00:04:51;;;;;;;17.23;3.35;;;6.10;99.90;;;;;;5093891;28;20036;-62
2024/02/12 00:07:18;;;;;;;12.15;1.65;;;6.10;99.90;;;;;;5103442;28;20078;-62
2024/02/12 00:09:45;;;;;;;10.38;1.50;;;6.10;99.90;;;;;;5097611;28;20040;-61
2024/02/12 00:12:13;;;;;;;9.52;2.03;;;6.10;99.90;;;;;;5093497;28;20116;-61
2024/02/12 00:14:40;;;;;;;14.65;2.28;;;6.10;99.90;;;;;;5098238;28;20551;-60
2024/02/12 00:17:09;;;;;;;10.65;2.10;;;6.00;99.90;;;;;;5103136;28;20054;-60
2024/02/12 00:19:37;;;;;;;8.60;1.95;;;6.00;99.90;;;;;;5095697;28;20143;-60
2024/02/12 00:22:04;;;;;;;12.65;2.65;;;6.00;99.90;;;;;;5095169;28;20134;-62
2024/02/12 00:24:32;;;;;;;11.60;1.83;;;6.00;99.90;;;;;;5100529;28;20481;-61
2024/02/12 00:27:00;;;;;;;9.55;1.50;;;6.00;99.90;;;;;;5099844;28;20452;-60
2024/02/12 00:29:28;;;;;;;18.20;2.53;;;6.00;99.90;;;;;;5097513;28;20044;-61
2024/02/12 00:31:58;;;;;;;14.40;2.03;;;6.00;99.90;;;;;;5092487;28;20056;-61
2024/02/12 00:34:26;;;;;;;13.32;1.60;;;6.10;99.90;;;;;;5094947;28;20052;-61
2024/02/12 00:36:53;;;;;;;8.93;2.15;;;6.10;99.90;;;;;;5097353;28;20062;-62
2024/02/12 00:39:20;;;;;;;10.07;2.08;;;6.10;99.90;;;;;;5096501;28;20036;-62
2024/02/12 00:41:51;;;;;;;12.55;2.47;;;6.10;99.90;;;;;;5102573;28;20080;-60
2024/02/12 00:44:19;;;;;;;15.98;3.60;;;6.10;99.90;;;;;;5095276;28;20047;-61
2024/02/12 00:46:47;;;;;;;8.45;1.50;;;6.10;99.90;;;;;;5093718;28;20059;-61
2024/02/12 00:49:17;;;;;;;5.47;1.40;;;6.10;99.90;;;;;;5098439;28;20066;-61
2024/02/12 00:51:44;;;;;;;10.30;1.80;;;6.10;99.90;;;;;;5101107;28;20043;-61
2024/02/12 00:54:14;;;;;;;11.27;1.25;;;6.10;99.90;;;;;;5100458;28;20051;-61
2024/02/12 00:56:44;;;;;;;9.55;2.40;;;6.10;99.90;;;;;;5096254;28;20462;-63
2024/02/12 00:59:11;;;;;;;6.82;1.50;;;6.00;99.90;;;;;;5102171;28;20129;-61
2024/02/12 01:01:39;;;;;;;7.88;1.63;;;6.00;99.90;;;;;;5095405;28;20487;-60
2024/02/12 01:04:07;;;;;;;8.35;2.40;;;6.00;99.90;;;;;;5097392;28;20561;-61
2024/02/12 01:06:34;;;;;;;8.43;3.65;;;6.00;99.90;;;;;;5096877;28;20097;-61
2024/02/12 01:09:03;;;;;;;6.93;1.63;;;6.00;99.90;;;;;;5096097;28;20083;-61
2024/02/12 01:11:32;;;;;;;10.75;1.45;;;6.00;99.90;;;;;;5096859;28;20123;-61
2024/02/12 01:13:59;;;;;;;10.35;1.45;;;6.00;99.90;;;;;;5094863;28;20055;-62
2024/02/12 01:16:27;;;;;;;8.90;1.77;;;6.00;99.90;;;;;;5098148;28;20040;-62
2024/02/12 01:18:54;;;;;;;16.48;3.13;;;6.00;99.90;;;;;;5094554;28;20484;-61
2024/02/12 01:21:22;;;;;;;9.48;1.50;;;6.00;99.90;;;;;;5095918;28;20109;-61
2024/02/12 01:23:49;;;;;;;11.02;1.80;;;6.00;99.90;;;;;;5096255;28;20063;-61
2024/02/12 01:26:16;;;;;;;8.05;1.33;;;6.00;99.90;;;;;;5096554;28;20047;-62
2024/02/12 01:28:43;;;;;;;7.45;2.03;;;6.00;99.90;;;;;;5100098;28;20048;-61
2024/02/12 01:31:19;;;;;;;13.18;2.90;;;5.90;99.90;;;;;;5097054;28;20073;-61
2024/02/12 01:33:49;;;;;;;11.07;2.10;;;6.00;99.90;;;;;;5097270;28;20051;-61
2024/02/12 01:36:16;;;;;;;10.15;2.67;;;5.90;99.90;;;;;;5092764;28;20044;-61
2024/02/12 01:38:44;;;;;;;16.33;2.67;;;5.90;99.90;;;;;;5099357;27;20101;-61
2024/02/12 01:41:11;;;;;;;8.07;1.67;;;5.90;99.90;;;;;;5099679;28;20075;-61
2024/02/12 01:43:40;;;;;;;10.20;1.90;;;5.90;99.90;;;;;;5102343;28;20078;-61
2024/02/12 01:46:07;;;;;;;12.27;1.80;;;5.80;99.90;;;;;;5098386;28;20146;-61
2024/02/12 01:48:35;;;;;;;15.45;1.85;;;5.80;99.90;;;;;;5094096;28;20040;-61
2024/02/12 01:51:06;;;;;;;6.88;1.40;;;5.80;99.90;;;;;;5085661;28;20060;-61
2024/02/12 01:53:42;;;;;;;12.85;3.00;;;5.90;99.90;;;;;;5094049;28;20040;-61
2024/02/12 01:56:10;;;;;;;9.52;1.75;;;5.80;99.90;;;;;;5094242;28;20067;-61
2024/02/12 01:58:40;;;;;;;13.32;1.73;;;5.80;99.90;;;;;;5094314;27;20055;-61
2024/02/12 02:01:14;;;;;;;11.73;2.53;;;5.80;99.90;;;;;;5089167;28;20568;-61
2024/02/12 02:03:44;;;;;;;8.40;1.00;;;5.70;99.90;;;;;;5094963;28;20468;-61
2024/02/12 02:06:12;;;;;;;7.90;2.00;;;5.80;99.90;;;;;;5093097;28;20048;-61
2024/02/12 02:08:41;;;;;;;11.77;1.63;;;5.80;99.90;;;;;;5098178;28;20399;-61
2024/02/12 02:11:11;;;;;;;9.00;2.13;;;5.80;99.90;;;;;;5093470;28;20044;-61
2024/02/12 02:13:44;;;;;;;8.98;1.30;;;5.70;99.90;;;;;;5088127;28;20151;-61
2024/02/12 02:16:12;;;;;;;10.25;1.30;;;5.70;99.90;;;;;;5092420;28;20052;-61
2024/02/12 02:18:38;;;;;;;10.50;1.52;;;5.70;99.90;;;;;;5089915;28;20108;-61
2024/02/12 02:21:10;;;;;;;8.18;1.35;;;5.70;99.90;;;;;;5087474;28;20121;-61
2024/02/12 02:23:40;;;;;;;19.60;4.50;;;5.70;99.90;;;;;;5091192;28;20043;-61
2024/02/12 02:26:07;;;;;;;10.82;1.67;;;5.60;99.90;;;;;;5098250;28;20075;-60
2024/02/12 02:28:34;;;;;;;9.20;2.33;;;5.60;99.90;;;;;;5093822;28;20109;-62
2024/02/12 02:31:01;;;;;;;8.70;1.10;;;5.60;99.90;;;;;;5093877;28;20098;-62
2024/02/12 02:33:29;;;;;;;6.75;1.70;;;5.60;99.90;;;;;;5093740;28;20458;-62
2024/02/12 02:35:56;;;;;;;10.07;1.80;;;5.60;99.90;;;;;;5095576;28;20062;-62
2024/02/12 02:38:23;;;;;;;8.82;1.88;;;5.60;99.90;;;;;;5099019;28;20142;-63
2024/02/12 02:40:50;;;;;;;6.13;1.40;;;5.60;99.90;;;;;;5097359;28;20044;-62
2024/02/12 02:43:17;;;;;;;7.35;1.73;;;5.60;99.90;;;;;;5088625;28;20152;-62
2024/02/12 02:45:45;;;;;;;10.70;1.90;;;5.60;99.90;;;;;;5096267;28;20074;-64
2024/02/12 02:48:12;;;;;;;6.80;1.63;;;5.60;99.90;;;;;;5100740;28;20043;-62
2024/02/12 02:50:40;;;;;;;10.07;2.20;;;5.60;99.90;;;;;;5100793;28;20047;-62
2024/02/12 02:53:08;;;;;;;10.70;1.42;;;5.60;99.90;;;;;;5094247;28;20051;-62
2024/02/12 02:55:35;;;;;;;12.85;3.45;;;5.60;99.90;;;;;;5099533;27;20070;-63
2024/02/12 02:58:02;;;;;;;4.47;1.25;;;5.50;99.90;;;;;;5105375;28;20040;-62
2024/02/12 03:00:30;;;;;;;10.27;1.33;;;5.50;99.90;;;;;;5105233;27;20063;-61
2024/02/12 03:03:03;;;;;;;8.60;1.95;;;5.60;99.90;;;;;;5106817;27;20055;-61
2024/02/12 03:05:30;;;;;;;5.80;1.42;;;5.50;99.90;;;;;;5094248;28;20484;-61
2024/02/12 03:07:58;;;;;;;11.52;1.70;;;5.60;99.90;;;;;;5107350;27;20059;-62
2024/02/12 03:10:26;;;;;;;9.10;1.48;;;5.50;99.90;;;;;;5100024;27;20071;-61
2024/02/12 03:12:53;;;;;;;4.85;1.10;;;5.60;99.90;;;;;;5106099;28;20043;-61
2024/02/12 03:15:20;;;;;;;9.68;2.28;;;5.60;99.90;;;;;;5098011;27;20130;-61
2024/02/12 03:17:48;;;;;;;6.30;1.60;;;5.60;99.90;;;;;;5103708;28;20044;-62
2024/02/12 03:20:17;;;;;;;5.78;0.90;;;5.50;99.90;;;;;;5095228;28;20278;-62
2024/02/12 03:22:45;;;;;;;5.43;1.33;;;5.50;99.90;;;;;;5104745;28;20054;-62
2024/02/12 03:25:12;;;;;;;7.93;1.75;;;5.40;99.90;;;;;;5106005;27;20069;-61
2024/02/12 03:27:40;;;;;;;4.68;1.27;;;5.40;99.90;;;;;;5106239;28;20334;-62
2024/02/12 03:30:09;;;;;;;6.68;1.23;;;5.40;99.90;;;;;;5108052;27;20044;-61
2024/02/12 03:32:38;;;;;;;4.30;1.10;;;5.30;99.90;;;;;;5103434;28;20046;-61
2024/02/12 03:35:06;;;;;;;9.23;1.75;;;5.30;99.90;;;;;;5097525;28;20055;-62
2024/02/12 03:37:34;;;;;;;11.57;2.53;;;5.30;99.90;;;;;;5104460;28;20484;-61
2024/02/12 03:40:01;;;;;;;12.30;2.00;;;5.20;99.90;;;;;;5105731;27;20048;-61
2024/02/12 03:42:28;;;;;;;12.02;1.30;;;5.20;99.90;;;;;;5107041;28;20055;-61
2024/02/12 03:44:54;;;;;;;10.95;1.38;;;5.10;99.90;;;;;;5103945;28;20064;-61
2024/02/12 03:47:27;;;;;;;9.27;1.55;;;5.10;99.90;;;;;;5106110;28;20135;-61
2024/02/12 04:00:58;;;;;;;5.57;1.40;;;4.90;99.90;;;;;;5100693;28;20048;-61
2024/02/12 04:03:25;;;;;;;7.18;1.17;;;4.80;99.90;;;;;;5097059;28;20492;-61
2024/02/12 04:05:52;;;;;;;9.10;1.17;;;4.80;99.90;;;;;;5099227;28;20047;-61
2024/02/12 04:08:19;;;;;;;7.90;1.25;;;4.90;99.90;;;;;;5099833;28;20048;-61
2024/02/12 04:10:47;;;;;;;9.05;1.80;;;4.80;99.90;;;;;;5093929;28;20050;-61
2024/02/12 04:13:14;;;;;;;4.60;1.38;;;4.80;99.90;;;;;;5100190;28;20120;-61
2024/02/12 04:15:42;;;;;;;6.57;1.33;;;4.80;99.90;;;;;;5095416;27;20468;-62
2024/02/12 04:18:08;;;;;;;10.60;1.52;;;4.70;99.90;;;;;;5095975;28;20090;-61
2024/02/12 04:20:37;;;;;;;7.82;1.02;;;4.70;99.90;;;;;;5099709;28;20938;-61
2024/02/12 04:23:11;;;;;;;2.85;1.00;;;4.70;99.90;;;;;;5096107;28;20048;-61
2024/02/12 04:25:38;;;;;;;;;;;4.70;99.90;;;;;;5099772;28;20055;-61
2024/02/12 04:28:05;;;;;;;7.00;1.08;;;4.70;99.90;;;;;;5097040;28;20356;-61
2024/02/12 04:30:32;;;;;;;11.80;1.13;;;4.70;99.90;;;;;;5102757;28;20097;-61
2024/02/12 04:32:59;;;;;;;14.00;1.77;;;4.80;99.90;;;;;;5093299;28;20052;-61
2024/02/12 04:35:26;;;;;;;10.55;1.38;;;4.80;99.90;;;;;;5097353;28;20075;-61
2024/02/12 04:37:54;;;;;;;5.93;1.25;;;4.70;99.90;;;;;;5095445;28;20051;-62
2024/02/12 04:40:25;;;;;;;10.93;1.15;;;4.70;99.90;;;;;;5096656;28;20144;-62
2024/02/12 04:42:55;;;;;;;7.50;1.38;;;4.70;99.90;;;;;;5100926;28;20062;-61
2024/02/12 04:45:22;;;;;;;5.13;1.00;;;4.70;99.90;;;;;;5081140;28;20051;-61
2024/02/12 04:47:52;;;;;;;9.20;1.23;;;4.60;99.90;;;;;;5099772;28;20479;-62
2024/02/12 04:50:19;;;;;;;9.23;1.20;;;4.70;99.90;;;;;;5101425;28;20500;-62
2024/02/12 04:52:47;;;;;;;14.20;1.38;;;4.60;99.90;;;;;;5092191;28;20043;-61
2024/02/12 04:55:15;;;;;;;5.05;1.25;;;4.60;99.90;;;;;;5104872;28;20420;-62
2024/02/12 04:57:42;;;;;;;11.43;1.30;;;4.60;99.90;;;;;;5100037;27;20100;-61
2024/02/12 05:00:10;;;;;;;8.00;1.23;;;4.60;99.90;;;;;;5105214;28;20625;-62
2024/02/12 05:02:40;;;;;;;7.80;1.50;;;4.50;99.90;;;;;;5102857;28;20132;-62
2024/02/12 05:05:07;;;;;;;5.80;1.15;;;4.50;99.90;;;;;;5090315;28;20048;-62
2024/02/12 05:07:34;;;;;;;5.18;1.00;;;4.50;99.90;;;;;;5103361;28;20086;-61
2024/02/12 05:10:01;;;;;;;8.80;1.33;;;4.50;99.90;;;;;;5096979;28;20040;-61
2024/02/12 05:12:29;;;;;;;20.85;2.00;;;4.50;99.90;;;;;;5100412;28;20516;-61
2024/02/12 05:14:56;;;;;;;6.30;1.10;;;4.40;99.90;;;;;;5094607;28;20081;-61
2024/02/12 05:17:28;;;;;;;6.57;1.17;;;4.40;99.90;;;;;;5102631;28;20543;-62
2024/02/12 05:22:41;;;;;;;9.98;1.10;;;4.40;99.90;;;;;;5098696;28;20036;-62
2024/02/12 05:25:08;;;;;;;7.95;1.00;;;4.40;99.90;;;;;;5100161;28;20051;-62
2024/02/12 05:27:35;;;;;;;10.40;1.63;;;4.40;99.90;;;;;;5097645;28;20040;-62
2024/02/12 05:30:02;;;;;;;13.32;2.55;;;4.40;99.90;;;;;;5093348;28;20074;-62
2024/02/12 05:32:29;;;;;;;4.60;0.93;;;4.30;99.90;;;;;;5095605;28;20931;-61
2024/02/12 05:34:56;;;;;;;5.82;1.10;;;4.30;99.90;;;;;;5101336;28;20054;-62
2024/02/12 05:37:23;;;;;;;6.65;1.40;;;4.30;99.90;;;;;;5104548;28;20044;-60
2024/02/12 05:39:50;;;;;;;10.38;1.63;;;4.30;99.90;;;;;;5100914;28;20067;-62
2024/02/12 05:42:17;;;;;;;11.23;1.40;;;4.40;99.90;;;;;;5101499;28;20489;-61
2024/02/12 05:44:45;;;;;;;11.10;1.48;;;4.30;99.90;;;;;;5101819;28;20134;-60
2024/02/12 05:47:12;;;;;;;12.70;1.70;;;4.30;99.90;;;;;;5098324;28;20052;-60
2024/02/12 05:49:40;;;;;;;12.80;1.67;;;4.30;99.90;;;;;;5096219;28;20249;-60
2024/02/12 05:52:08;;;;;;;4.00;0.90;;;4.30;99.90;;;;;;5096994;28;20415;-61
2024/02/12 05:54:35;;;;;;;5.55;1.17;;;4.30;99.90;;;;;;5090406;28;20041;-60
2024/02/12 05:57:04;;;;;;;9.07;1.15;;;4.30;99.90;;;;;;5097383;28;20051;-62
2024/02/12 05:59:33;;;;;;;9.73;1.63;;;4.40;99.90;;;;;;5095512;28;20054;-62
2024/02/12 06:02:02;;;;;;;12.23;1.95;;;4.40;99.90;;;;;;5098818;28;20503;-62
2024/02/12 06:04:30;;;;;;;5.53;1.20;;;4.40;99.90;;;;;;5102552;28;20443;-61
2024/02/12 06:06:58;;;;;;;9.73;1.90;;;4.40;99.90;;;;;;5095054;28;20047;-61
2024/02/12 06:09:27;;;;;;;4.80;1.05;;;4.40;99.90;;;;;;5089812;28;20094;-61
2024/02/12 06:11:54;;;;;;;5.18;1.40;;;4.40;99.90;;;;;;5092909;28;20050;-60
2024/02/12 06:14:21;;;;;;;8.10;1.25;;;4.50;99.90;;;;;;5098597;28;20044;-61
2024/02/12 06:16:49;;;;;;;10.40;1.90;;;4.50;99.90;;;;;;5099902;28;20501;-61
2024/02/12 06:19:15;;;;;;;9.45;1.23;;;4.50;99.90;;;;;;5096721;28;20612;-61
2024/02/12 06:21:44;;;;;;;17.17;4.25;;;4.60;99.90;;;;;;5093876;28;20059;-61
2024/02/12 06:24:11;;;;;;;3.97;1.35;;;4.60;99.90;;;;;;5093647;28;20462;-61
2024/02/12 06:26:38;;;;;;;9.88;1.67;;;4.60;99.90;;;;;;5096830;28;20048;-60
2024/02/12 06:29:05;;;;;;;11.05;1.65;;;4.70;99.90;;;;;;5095275;28;20059;-61
2024/02/12 06:31:32;;;;;;;5.78;1.40;;;4.70;99.90;;;;;;5096408;28;20185;-60
2024/02/12 06:33:59;;;;;;;9.70;1.30;;;4.80;99.90;;;;;;5096632;28;20099;-61
2024/02/12 06:36:27;;;;;;;6.95;1.63;;;4.90;99.90;;;;;;5100783;28;20046;-61
2024/02/12 06:38:53;;;;;;;8.10;1.70;;;4.90;99.90;;;;;;5093510;28;20397;-61
2024/02/12 06:41:20;;;;;;;4.07;1.40;;;4.90;99.90;;;;;;5090521;28;20056;-61
2024/02/12 06:43:47;;;;;;;11.23;1.58;;;5.00;99.90;;;;;;5092058;28;20047;-61
2024/02/12 06:46:14;;;;;;;7.05;1.60;;;5.00;99.90;;;;;;5100133;28;20067;-60
2024/02/12 06:48:41;;;;;;;8.23;1.40;;;5.10;99.90;;;;;;5101774;28;20086;-59
2024/02/12 06:51:08;;;;;;;10.15;2.72;;;5.20;99.90;;;;;;5092693;28;20338;-61
2024/02/12 06:53:36;;;;;;;5.25;1.42;;;5.20;99.90;;;;;;5094769;28;20048;-61
2024/02/12 06:56:04;;;;;;;7.40;1.35;;;5.20;99.90;;;;;;5094746;28;20051;-61
2024/02/12 06:58:31;;;;;;;8.38;2.00;;;5.20;99.90;;;;;;5098831;28;20061;-61
2024/02/12 07:00:58;;;;;;;13.52;1.65;;;5.30;99.90;;;;;;5099274;28;20048;-60
2024/02/12 07:03:25;;;;;;;13.20;1.95;;;5.30;99.90;;;;;;5096191;28;20047;-60
2024/02/12 07:05:52;;;;;;;6.50;2.05;;;5.40;99.90;;;;;;5099743;28;20132;-60
2024/02/12 07:08:21;;;;;;;9.68;1.60;;;5.40;99.90;;;;;;5091146;28;20047;-61
2024/02/12 07:10:48;;;;;;;9.70;1.40;;;5.50;99.90;;;;;;5095298;28;20440;-61
2024/02/12 07:13:18;;;;;;;7.95;1.85;;;5.50;99.90;;;;;;5098133;28;20360;-61
2024/02/12 07:15:45;;;;;;;13.00;1.85;;;5.60;99.90;;;;;;4745225;27;9999973;-60
2024/02/12 07:18:12;;;;;;;6.05;1.67;;;5.60;99.90;;;;;;5092120;28;20054;-60
2024/02/12 07:20:40;;;;;;;4.72;1.45;;;5.60;99.90;;;;;;5085774;28;20211;-59
2024/02/12 07:23:07;;;;;;;11.60;1.50;;;5.60;99.90;;;;;;5087061;28;20215;-60
2024/02/12 07:25:35;;;;;;;5.70;1.73;;;5.70;99.90;;;;;;5088170;28;20067;-60
2024/02/12 07:28:02;;;;;;;10.30;1.77;;;5.60;99.90;;;;;;5096194;28;20046;-60
2024/02/12 07:30:30;;;;;;;12.40;2.13;;;5.60;99.90;;;;;;5096204;28;20062;-62
2024/02/12 07:32:59;;;;;;;7.90;1.45;;;5.60;99.90;;;;;;5087469;28;20043;-60
2024/02/12 07:35:29;;;;;;;10.75;1.75;;;5.60;99.90;;;;;;5098505;28;20058;-61
2024/02/12 07:37:58;;;;;;;9.40;1.40;;;5.60;99.90;;;;;;5089150;28;20134;-61
2024/02/12 07:40:25;;;;;;;7.65;1.48;;;5.60;99.90;;;;;;5093291;28;20139;-61
2024/02/12 07:42:53;;;;;;;8.93;1.20;;;5.60;99.90;;;;;;5090248;28;20044;-60
2024/02/12 07:45:20;;;;;;;13.23;2.15;;;5.60;99.90;;;;;;5094027;28;20059;-64
2024/02/12 07:47:47;;;;;;;13.40;1.42;;;5.40;99.90;;;;;;5101582;28;20079;-60
2024/02/12 07:50:14;;;;;;;6.82;2.78;;;5.70;99.90;;;;;;5091802;28;20573;-60
2024/02/12 07:52:41;;;;;;;25.60;9.15;;;5.60;99.90;;;;;;5085606;28;20568;-61
2024/02/12 07:55:10;;;;;;;15.32;2.50;;;5.60;99.90;;;;;;5092252;28;20103;-60
2024/02/12 07:57:37;;;;;;;11.20;1.63;;;5.50;99.90;;;;;;5098316;28;20084;-61
2024/02/12 08:00:07;;;;;;;11.25;1.67;;;5.50;99.90;;;;;;5097916;28;20455;-61
2024/02/12 08:02:35;;;;;;;12.75;2.00;;;5.60;99.90;;;;;;5096083;28;20040;-60
2024/02/12 08:05:04;;;;;;;14.38;3.28;;;5.50;99.90;;;;;;5098097;28;20563;-60
2024/02/12 08:07:32;;;;;;;4.72;1.55;;;5.60;99.90;;;;;;5099281;28;20043;-60
2024/02/12 08:10:17;;;;;;;9.75;1.67;;;5.60;99.90;;;;;;5088834;28;20055;-62
2024/02/12 08:12:44;;;;;;;7.32;1.63;;;5.60;99.90;;;;;;5087785;28;20043;-61
2024/02/12 08:15:11;;;;;;;3.20;1.00;;;5.60;99.90;;;;;;5093342;28;20097;-59
2024/02/12 08:17:38;;;;;;;5.20;1.05;;;5.60;99.90;;;;;;5102277;28;20108;-62
2024/02/12 08:20:08;;;;;;;6.47;1.65;;;5.60;99.90;;;;;;5089422;28;20402;-62
2024/02/12 08:22:35;;;;;;;8.38;1.42;;;5.60;99.90;;;;;;5083003;28;20573;-62
2024/02/12 08:25:03;;;;;;;10.77;1.00;;;5.60;99.90;;;;;;5091643;28;20051;-60
2024/02/12 08:27:30;;;;;;;4.88;1.88;;;5.60;99.90;;;;;;5098075;28;20044;-62
2024/02/12 08:29:57;;;;;;;6.30;1.58;;;5.60;99.90;;;;;;5102700;28;20430;-61
2024/02/12 08:32:24;;;;;;;5.90;1.30;;;5.60;99.90;;;;;;5091488;28;20048;-61
2024/02/12 08:34:52;;;;;;;5.82;1.70;;;5.70;99.90;;;;;;5088926;28;20056;-60
2024/02/12 08:37:19;;;;;;;5.63;1.38;;;5.70;99.90;;;;;;5091866;28;20056;-60
2024/02/12 08:39:46;;;;;;;7.10;0.90;;;5.70;99.90;;;;;;5094941;28;20047;-62
2024/02/12 08:42:12;;;;;;;7.25;1.00;;;5.80;99.90;;;;;;5099487;28;20364;-60
2024/02/12 08:44:39;;;;;;;7.53;2.13;;;5.70;99.90;;;;;;5101648;28;20539;-61
2024/02/12 08:47:06;;;;;;;16.33;1.77;;;5.70;99.90;;;;;;5090243;28;20489;-62
2024/02/12 08:49:34;;;;;;;3.10;1.05;;;5.80;99.90;;;;;;5087712;28;20147;-61
2024/02/12 08:52:01;;;;;;;14.75;2.97;;;5.80;99.90;;;;;;5092739;28;21258;-61
2024/02/12 08:54:30;;;;;;;10.75;1.38;;;5.80;99.90;;;;;;5093633;28;20224;-61
2024/02/12 08:56:58;;;;;;;8.85;1.70;;;5.80;99.90;;;;;;5096012;28;20080;-61
2024/02/12 08:59:25;;;;;;;6.70;1.33;;;6.10;99.90;;;;;;5096971;28;20047;-61
2024/02/12 09:01:52;;;;;;;10.13;1.30;;;6.20;99.90;;;;;;5094226;28;20143;-60
2024/02/12 09:04:19;;;;;;;5.50;1.00;;;6.30;99.90;;;;;;5092974;28;20109;-61
2024/02/12 09:06:46;;;;;;;10.20;2.13;;;6.30;99.90;;;;;;5094990;28;20031;-61
2024/02/12 09:09:13;;;;;;;7.18;1.05;;;6.40;99.90;;;;;;5090018;28;20044;-61
2024/02/12 09:11:43;;;;;;;2.80;1.00;;;6.70;99.90;;;;;;5096117;28;20511;-62
2024/02/12 09:14:10;;;;;;;8.13;1.55;;;6.90;99.90;;;;;;5102026;28;20553;-61
2024/02/12 09:16:38;;;;;;;7.57;0.95;;;7.10;99.90;;;;;;5093171;28;20043;-61
2024/02/12 09:19:05;;;;;;;7.63;1.05;;;7.20;99.90;;;;;;5088343;28;20130;-61
2024/02/12 09:21:38;;;;;;;4.15;1.42;;;7.00;99.90;;;;;;5100372;28;20154;-61
2024/02/12 09:24:07;;;;;;;6.55;1.33;;;7.10;99.90;;;;;;5093865;28;20252;-62
2024/02/12 09:26:35;;;;;;;3.75;1.23;;;7.20;99.90;;;;;;5098918;28;20044;-61
2024/02/12 09:29:02;;;;;;;2.22;0.98;;;7.10;99.90;;;;;;5090775;28;20120;-62
2024/02/12 09:31:33;;;;;;;3.42;1.00;;;6.90;99.90;;;;;;5093625;28;20044;-61
2024/02/12 09:34:03;;;;;;;3.60;0.88;;;6.90;99.90;;;;;;5085124;28;20205;-61
2024/02/12 09:36:30;;;;;;;11.50;1.42;;;6.70;99.90;;;;;;5093175;28;20135;-61
2024/02/12 09:38:57;;;;;;;12.60;1.60;;;6.70;99.90;;;;;;5095308;28;20104;-61
2024/02/12 09:41:26;;;;;;;7.50;1.23;;;6.60;99.90;;;;;;5095631;28;20051;-61
2024/02/12 09:43:54;;;;;;;9.35;1.10;;;6.60;99.90;;;;;;5096508;28;20078;-62
2024/02/12 09:46:22;;;;;;;6.47;1.50;;;6.60;99.90;;;;;;5091283;28;20056;-61
2024/02/12 09:48:49;;;;;;;8.43;1.90;;;6.60;99.90;;;;;;5096296;28;20420;-61
2024/02/12 09:51:17;;;;;;;3.17;1.20;;;6.50;99.90;;;;;;5096593;28;20125;-61
2024/02/12 09:53:44;;;;;;;13.85;1.38;;;6.60;99.90;;;;;;5086035;28;20131;-60
2024/02/12 09:56:11;;;;;;;7.18;1.98;;;6.60;99.90;;;;;;5095063;28;20067;-61
2024/02/12 09:58:38;;;;;;;11.02;1.48;;;6.70;99.90;;;;;;5094647;28;20057;-60
2024/02/12 10:01:05;;;;;;;4.85;1.20;;;6.60;99.90;;;;;;5104198;28;20055;-61
2024/02/12 10:03:33;;;;;;;5.03;1.58;;;6.70;99.90;;;;;;5097452;28;20043;-60
2024/02/12 10:05:59;;;;;;;3.13;1.10;;;6.70;99.90;;;;;;5088281;28;20673;-60
2024/02/12 10:08:27;;;;;;;4.78;1.50;;;6.80;99.90;;;;;;5096621;28;20036;-60
2024/02/12 10:10:54;;;;;;;4.55;1.30;;;6.80;99.90;;;;;;5094389;28;20044;-61
2024/02/12 10:13:21;;;;;;;7.55;1.48;;;6.80;99.90;;;;;;5095611;28;20046;-61
2024/02/12 10:15:50;;;;;;;4.90;1.67;;;6.80;99.90;;;;;;5096816;28;20503;-60
2024/02/12 10:18:17;;;;;;;8.32;1.98;;;6.70;99.90;;;;;;5086231;28;20044;-61
2024/02/12 10:20:44;;;;;;;5.20;1.88;;;6.80;99.90;;;;;;5087481;28;20075;-61
2024/02/12 10:23:15;;;;;;;7.82;1.80;;;6.90;99.90;;;;;;5093154;28;20036;-62
2024/02/12 10:25:45;;;;;;;4.65;1.40;;;7.00;99.90;;;;;;5090471;28;20047;-62
2024/02/12 10:28:15;;;;;;;3.95;1.30;;;7.00;99.90;;;;;;5088780;28;20472;-62
2024/02/12 10:30:43;;;;;;;8.00;1.92;;;7.00;99.90;;;;;;5098339;28;20040;-62
2024/02/12 10:33:12;;;;;;;5.45;2.13;;;7.10;99.90;;;;;;5090813;28;20066;-61
2024/02/12 10:35:48;;;;;;;3.70;1.60;;;7.10;99.90;;;;;;5095498;28;20044;-63
2024/02/12 10:38:15;;;;;;;9.15;1.40;;;7.20;99.90;;;;;;5091881;28;20497;-61
2024/02/12 10:41:04;;;;;;;7.05;1.50;;;7.30;99.90;;;;;;5097407;28;20504;-62
2024/02/12 10:43:32;;;;;;;7.43;1.20;;;7.40;99.90;;;;;;5093491;28;20218;-62
2024/02/12 10:46:02;;;;;;;3.08;0.90;;;7.40;99.90;;;;;;5098876;28;20079;-61
2024/02/12 10:48:31;;;;;;;10.38;1.73;;;7.30;99.90;;;;;;5093961;28;20086;-61
2024/02/12 10:50:58;;;;;;;5.15;1.25;;;7.40;99.90;;;;;;5091420;28;20523;-63
2024/02/12 10:53:26;;;;;;;8.80;1.33;;;7.50;99.90;;;;;;5094468;28;20359;-62
2024/02/12 10:55:54;;;;;;;3.25;1.20;;;7.60;99.90;;;;;;5089926;28;20048;-61
2024/02/12 10:58:21;;;;;;;6.85;1.40;;;7.50;99.90;;;;;;5092431;28;20058;-62
2024/02/12 11:00:57;;;;;;;5.05;1.20;;;7.50;99.90;;;;;;5095378;28;20047;-62
2024/02/12 11:03:51;;;;;;;9.02;2.92;;;7.60;99.90;;;;;;5095244;28;20112;-61
2024/02/12 11:06:18;;;;;;;1.55;0.75;;;7.60;99.90;;;;;;5094423;28;20062;-61
2024/02/12 11:08:49;;;;;;;3.72;1.00;;;7.70;99.90;;;;;;5099837;28;20122;-62
2024/02/12 11:11:20;;;;;;;7.28;1.30;;;7.80;99.90;;;;;;5099611;28;20074;-62
2024/02/12 11:13:49;;;;;;;2.42;0.73;;;7.90;99.90;;;;;;5096926;28;20511;-60
2024/02/12 11:16:22;;;;;;;8.10;1.00;;;7.90;99.90;;;;;;5097159;28;20697;-61
2024/02/12 11:18:58;;;;;;;3.58;0.95;;;7.90;99.90;;;;;;5100476;28;20043;-61
2024/02/12 11:21:35;;;;;;;4.93;1.27;;;7.90;99.90;;;;;;5096652;28;20092;-61
2024/02/12 11:24:10;;;;;;;0.85;0.85;;;7.90;99.90;;;;;;5097798;28;20397;-61
2024/02/12 11:26:38;;;;;;;3.42;0.90;;;7.80;99.90;;;;;;5101816;28;20117;-61
2024/02/12 11:29:05;;;;;;;3.40;0.63;;;7.90;99.90;;;;;;5099408;28;20043;-61
2024/02/12 11:31:37;;;;;;;6.18;1.15;;;7.90;99.90;;;;;;5101071;28;20490;-61
2024/02/12 11:34:12;;;;;;;5.40;1.02;;;7.90;99.90;;;;;;5102647;28;20453;-61
2024/02/12 11:36:40;;;;;;;5.65;1.38;;;8.00;99.90;;;;;;5092643;28;20134;-61
2024/02/12 11:39:07;;;;;;;4.60;1.38;;;8.10;99.90;;;;;;5097261;28;20141;-61
2024/02/12 11:41:35;;;;;;;3.22;1.00;;;8.10;99.90;;;;;;5101844;28;20296;-61
2024/02/12 11:44:07;;;;;;;4.28;0.93;;;8.10;99.90;;;;;;5092969;28;20054;-60
2024/02/12 11:46:38;;;;;;;7.43;0.98;;;8.20;99.90;;;;;;5095140;28;20313;-61
2024/02/12 11:49:06;;;;;;;1.75;0.70;;;8.20;99.90;;;;;;5102142;28;20092;-60
2024/02/12 11:51:35;;;;;;;4.85;0.80;;;8.30;99.90;;;;;;5097407;28;20051;-61
2024/02/12 11:54:02;;;;;;;3.95;1.00;;;8.40;99.90;;;;;;5105326;28;20052;-61
2024/02/12 11:56:30;;;;;;;5.78;1.38;;;8.50;99.90;;;;;;5103645;28;20154;-60
2024/02/12 11:58:57;;;;;;;3.58;1.05;;;8.40;99.90;;;;;;5105558;28;20044;-61
2024/02/12 12:01:35;;;;;;;9.40;1.17;;;8.50;99.90;;;;;;5092213;28;20488;-61
2024/02/12 12:04:02;;;;;;;6.00;0.80;;;8.50;99.90;;;;;;5103487;28;20568;-61
2024/02/12 12:06:35;;;;;;;2.65;1.27;;;8.60;99.90;;;;;;5102904;28;20055;-61
2024/02/12 12:09:02;;;;;;;3.30;0.88;;;8.60;99.90;;;;;;5093771;28;20141;-61
2024/02/12 12:11:30;;;;;;;3.70;1.05;;;8.60;99.90;;;;;;5101873;28;20054;-61
2024/02/12 12:14:01;;;;;;;2.63;0.73;;;8.70;99.90;;;;;;5097450;28;20044;-61
2024/02/12 12:16:32;;;;;;;4.75;2.22;;;8.70;99.90;;;;;;5099045;28;20047;-61
2024/02/12 12:19:02;;;;;;;4.85;1.00;;;8.80;99.90;;;;;;5096087;28;20051;-61
2024/02/12 12:21:30;;;;;;;2.58;0.90;;;8.80;99.90;;;;;;5104035;28;20070;-61
2024/02/12 12:23:57;;;;;;;2.42;1.13;;;8.90;99.90;;;;;;5093265;28;20043;-61
2024/02/12 12:26:26;;;;;;;6.50;1.25;;;8.90;99.90;;;;;;5099700;28;20500;-61
2024/02/12 12:28:53;;;;;;;2.92;0.93;;;8.90;99.90;;;;;;5097609;28;20098;-61
2024/02/12 12:31:20;;;;;;;7.78;1.38;;;8.80;99.90;;;;;;5095925;28;20055;-61
2024/02/12 12:33:47;;;;;;;4.63;0.80;;;8.70;99.90;;;;;;5099110;28;20101;-61
2024/02/12 12:36:14;;;;;;;4.30;0.90;;;8.70;99.90;;;;;;5107063;28;20052;-61
2024/02/12 12:38:44;;;;;;;6.20;1.30;;;8.70;99.90;;;;;;5104116;28;20396;-61
2024/02/12 12:41:12;;;;;;;2.40;0.73;;;8.70;99.90;;;;;;5095260;28;20044;-62
2024/02/12 12:43:39;;;;;;;5.32;1.50;;;8.80;99.90;;;;;;5099790;27;20492;-62
2024/02/12 12:46:06;;;;;;;5.82;1.00;;;8.90;99.90;;;;;;5099806;28;20088;-62
2024/02/12 12:48:33;;;;;;;3.95;1.05;;;8.90;99.90;;;;;;5105435;28;20100;-62
2024/02/12 12:51:00;;;;;;;3.75;0.93;;;8.90;99.90;;;;;;5091858;28;20052;-64
2024/02/12 12:53:30;;;;;;;1.73;0.80;;;9.00;99.90;;;;;;5102686;28;20042;-62
2024/02/12 12:55:57;;;;;;;3.47;0.95;;;8.90;99.90;;;;;;5098954;28;20052;-62
2024/02/12 12:58:24;;;;;;;6.40;0.90;;;8.90;99.90;;;;;;5093850;28;20060;-62
2024/02/12 13:00:52;;;;;;;9.55;1.15;;;9.00;99.90;;;;;;5103918;28;20489;-61
2024/02/12 13:03:21;;;;;;;2.63;0.85;;;8.80;99.90;;;;;;5097487;28;20044;-62
2024/02/12 13:05:49;;;;;;;2.90;0.93;;;8.90;99.90;;;;;;5104334;28;20039;-62
2024/02/12 13:08:17;;;;;;;2.15;0.68;;;8.90;99.90;;;;;;5105103;28;20047;-62
2024/02/12 13:10:48;;;;;;;2.38;0.68;;;8.90;99.90;;;;;;5097866;28;20063;-62
2024/02/12 13:13:16;;;;;;;5.53;1.20;;;9.10;99.90;;;;;;5085223;28;20244;-61
2024/02/12 13:15:44;;;;;;;4.30;1.00;;;9.20;99.90;;;;;;5103230;28;20111;-62